sensor_id;sensor_type;location;lat;lon;timestamp;temperature;humidity
75994;DHT22;64680;53.800;9.988;2023-10-19T00:01:08;6.30;35.10
75994;DHT22;64680;53.800;9.988;2023-10-19T00:03:35;6.30;35.00
75994;DHT22;64680;53.800;9.988;2023-10-19T00:06:01;6.30;35.00
75994;DHT22;64680;53.800;9.988;2023-10-19T00:08:26;6.30;34.60
75994;DHT22;64680;53.800;9.988;2023-10-19T00:11:02;6.30;34.70
75994;DHT22;64680;53.800;9.988;2023-10-19T00:13:30;6.30;35.40
75994;DHT22;64680;53.800;9.988;2023-10-19T00:15:56;6.30;36.10
75994;DHT22;64680;53.800;9.988;2023-10-19T00:18:23;6.30;36.20
75994;DHT22;64680;53.800;9.988;2023-10-19T00:20:55;6.30;35.40
75994;DHT22;64680;53.800;9.988;2023-10-19T00:23:44;6.30;34.30
75994;DHT22;64680;53.800;9.988;2023-10-19T00:26:13;6.30;34.40
75994;DHT22;64680;53.800;9.988;2023-10-19T00:28:51;6.40;33.80
75994;DHT22;64680;53.800;9.988;2023-10-19T00:31:27;6.30;34.20
75994;DHT22;64680;53.800;9.988;2023-10-19T00:33:59;6.40;33.80
75994;DHT22;64680;53.800;9.988;2023-10-19T00:36:26;6.30;35.00
75994;DHT22;64680;53.800;9.988;2023-10-19T00:38:52;6.30;34.80
75994;DHT22;64680;53.800;9.988;2023-10-19T00:41:23;6.30;34.30
75994;DHT22;64680;53.800;9.988;2023-10-19T00:43:57;6.30;34.30
75994;DHT22;64680;53.800;9.988;2023-10-19T00:46:28;6.30;35.10
75994;DHT22;64680;53.800;9.988;2023-10-19T00:49:10;6.30;34.90
75994;DHT22;64680;53.800;9.988;2023-10-19T00:51:38;6.30;34.60
75994;DHT22;64680;53.800;9.988;2023-10-19T00:54:32;6.30;34.40
75994;DHT22;64680;53.800;9.988;2023-10-19T00:57:02;6.40;34.70
75994;DHT22;64680;53.800;9.988;2023-10-19T00:59:37;6.30;34.30
75994;DHT22;64680;53.800;9.988;2023-10-19T01:02:13;6.30;34.70
75994;DHT22;64680;53.800;9.988;2023-10-19T01:04:57;6.30;35.00
75994;DHT22;64680;53.800;9.988;2023-10-19T01:07:27;6.40;33.60
75994;DHT22;64680;53.800;9.988;2023-10-19T01:09:55;6.40;33.70
75994;DHT22;64680;53.800;9.988;2023-10-19T01:12:22;6.40;33.50
75994;DHT22;64680;53.800;9.988;2023-10-19T01:15:10;6.40;32.70
75994;DHT22;64680;53.800;9.988;2023-10-19T01:17:44;6.40;33.50
75994;DHT22;64680;53.800;9.988;2023-10-19T01:23:06;6.40;32.80
75994;DHT22;64680;53.800;9.988;2023-10-19T01:28:08;6.50;32.70
75994;DHT22;64680;53.800;9.988;2023-10-19T01:30:35;6.40;33.00
75994;DHT22;64680;53.800;9.988;2023-10-19T01:33:05;6.50;30.70
75994;DHT22;64680;53.800;9.988;2023-10-19T01:35:41;6.50;31.40
75994;DHT22;64680;53.800;9.988;2023-10-19T01:38:26;6.50;31.90
75994;DHT22;64680;53.800;9.988;2023-10-19T01:40:56;6.50;31.60
75994;DHT22;64680;53.800;9.988;2023-10-19T01:43:25;6.50;31.10
75994;DHT22;64680;53.800;9.988;2023-10-19T01:45:54;6.50;30.70
75994;DHT22;64680;53.800;9.988;2023-10-19T01:48:20;6.50;30.30
75994;DHT22;64680;53.800;9.988;2023-10-19T01:50:49;6.50;30.40
75994;DHT22;64680;53.800;9.988;2023-10-19T01:53:16;6.60;29.10
75994;DHT22;64680;53.800;9.988;2023-10-19T01:55:44;6.60;28.10
75994;DHT22;64680;53.800;9.988;2023-10-19T01:58:12;6.60;29.20
75994;DHT22;64680;53.800;9.988;2023-10-19T02:00:42;6.60;28.50
75994;DHT22;64680;53.800;9.988;2023-10-19T02:03:09;6.70;28.30
75994;DHT22;64680;53.800;9.988;2023-10-19T02:05:35;6.70;29.30
75994;DHT22;64680;53.800;9.988;2023-10-19T02:08:08;6.70;28.80
75994;DHT22;64680;53.800;9.988;2023-10-19T02:10:34;6.70;27.90
75994;DHT22;64680;53.800;9.988;2023-10-19T02:13:01;6.70;29.10
75994;DHT22;64680;53.800;9.988;2023-10-19T02:15:34;6.60;28.90
75994;DHT22;64680;53.800;9.988;2023-10-19T02:18:02;6.70;28.90
75994;DHT22;64680;53.800;9.988;2023-10-19T02:20:28;6.70;29.00
75994;DHT22;64680;53.800;9.988;2023-10-19T02:22:55;6.70;27.20
75994;DHT22;64680;53.800;9.988;2023-10-19T02:25:25;6.70;27.00
75994;DHT22;64680;53.800;9.988;2023-10-19T02:27:53;6.70;26.60
75994;DHT22;64680;53.800;9.988;2023-10-19T02:30:19;6.80;26.20
75994;DHT22;64680;53.800;9.988;2023-10-19T02:32:44;6.80;26.20
75994;DHT22;64680;53.800;9.988;2023-10-19T02:35:13;6.70;26.10
75994;DHT22;64680;53.800;9.988;2023-10-19T02:37:39;6.70;27.00
75994;DHT22;64680;53.800;9.988;2023-10-19T02:40:05;6.80;26.10
75994;DHT22;64680;53.800;9.988;2023-10-19T02:42:47;6.80;26.50
75994;DHT22;64680;53.800;9.988;2023-10-19T02:45:16;6.80;26.20
75994;DHT22;64680;53.800;9.988;2023-10-19T02:47:45;6.80;26.70
75994;DHT22;64680;53.800;9.988;2023-10-19T02:50:11;6.80;26.40
75994;DHT22;64680;53.800;9.988;2023-10-19T02:52:41;6.80;26.60
75994;DHT22;64680;53.800;9.988;2023-10-19T02:55:08;6.70;27.40
75994;DHT22;64680;53.800;9.988;2023-10-19T02:57:36;6.70;28.20
75994;DHT22;64680;53.800;9.988;2023-10-19T03:00:02;6.70;27.70
75994;DHT22;64680;53.800;9.988;2023-10-19T03:02:34;6.70;27.10
75994;DHT22;64680;53.800;9.988;2023-10-19T03:05:01;6.80;28.00
75994;DHT22;64680;53.800;9.988;2023-10-19T03:07:34;6.80;26.90
75994;DHT22;64680;53.800;9.988;2023-10-19T03:10:00;6.80;25.20
75994;DHT22;64680;53.800;9.988;2023-10-19T03:12:27;6.80;25.90
75994;DHT22;64680;53.800;9.988;2023-10-19T03:14:53;6.80;28.10
75994;DHT22;64680;53.800;9.988;2023-10-19T03:17:18;6.80;27.70
75994;DHT22;64680;53.800;9.988;2023-10-19T03:19:44;6.80;27.10
75994;DHT22;64680;53.800;9.988;2023-10-19T03:22:09;6.80;26.60
75994;DHT22;64680;53.800;9.988;2023-10-19T03:24:37;6.80;27.00
75994;DHT22;64680;53.800;9.988;2023-10-19T03:27:14;6.80;26.50
75994;DHT22;64680;53.800;9.988;2023-10-19T03:29:47;6.80;26.60
75994;DHT22;64680;53.800;9.988;2023-10-19T03:32:19;6.80;27.30
75994;DHT22;64680;53.800;9.988;2023-10-19T03:34:47;6.80;26.10
75994;DHT22;64680;53.800;9.988;2023-10-19T03:37:14;6.90;24.80
75994;DHT22;64680;53.800;9.988;2023-10-19T03:39:41;6.90;24.10
75994;DHT22;64680;53.800;9.988;2023-10-19T03:42:07;6.90;23.50
75994;DHT22;64680;53.800;9.988;2023-10-19T03:44:33;6.80;25.50
75994;DHT22;64680;53.800;9.988;2023-10-19T03:47:08;6.80;26.00
75994;DHT22;64680;53.800;9.988;2023-10-19T03:49:38;6.90;25.20
75994;DHT22;64680;53.800;9.988;2023-10-19T03:52:05;6.90;26.40
75994;DHT22;64680;53.800;9.988;2023-10-19T03:54:33;6.80;26.90
75994;DHT22;64680;53.800;9.988;2023-10-19T03:57:04;6.80;25.80
75994;DHT22;64680;53.800;9.988;2023-10-19T03:59:32;6.80;26.60
75994;DHT22;64680;53.800;9.988;2023-10-19T04:02:03;6.80;26.70
75994;DHT22;64680;53.800;9.988;2023-10-19T04:04:35;6.80;26.30
75994;DHT22;64680;53.800;9.988;2023-10-19T04:07:00;6.80;26.40
75994;DHT22;64680;53.800;9.988;2023-10-19T04:09:35;6.80;26.10
75994;DHT22;64680;53.800;9.988;2023-10-19T04:12:06;6.80;26.70
75994;DHT22;64680;53.800;9.988;2023-10-19T04:14:32;6.80;26.60
75994;DHT22;64680;53.800;9.988;2023-10-19T04:16:57;6.90;24.80
75994;DHT22;64680;53.800;9.988;2023-10-19T04:19:24;6.80;25.70
75994;DHT22;64680;53.800;9.988;2023-10-19T04:21:50;6.80;26.40
75994;DHT22;64680;53.800;9.988;2023-10-19T04:24:16;6.80;26.60
75994;DHT22;64680;53.800;9.988;2023-10-19T04:26:44;6.80;27.10
75994;DHT22;64680;53.800;9.988;2023-10-19T04:29:10;6.80;28.90
75994;DHT22;64680;53.800;9.988;2023-10-19T04:31:39;6.80;33.80
75994;DHT22;64680;53.800;9.988;2023-10-19T04:34:21;6.80;34.40
75994;DHT22;64680;53.800;9.988;2023-10-19T04:36:48;6.70;37.30
75994;DHT22;64680;53.800;9.988;2023-10-19T04:39:14;6.70;38.70
75994;DHT22;64680;53.800;9.988;2023-10-19T04:41:40;6.60;40.20
75994;DHT22;64680;53.800;9.988;2023-10-19T04:44:06;6.60;44.70
75994;DHT22;64680;53.800;9.988;2023-10-19T04:46:34;6.50;47.40
75994;DHT22;64680;53.800;9.988;2023-10-19T04:49:00;6.50;49.00
75994;DHT22;64680;53.800;9.988;2023-10-19T04:51:26;6.40;51.20
75994;DHT22;64680;53.800;9.988;2023-10-19T04:53:51;6.40;53.30
75994;DHT22;64680;53.800;9.988;2023-10-19T04:56:17;6.30;56.90
75994;DHT22;64680;53.800;9.988;2023-10-19T04:58:42;6.30;58.60
75994;DHT22;64680;53.800;9.988;2023-10-19T05:01:08;6.20;61.90
75994;DHT22;64680;53.800;9.988;2023-10-19T05:03:37;6.20;64.00
75994;DHT22;64680;53.800;9.988;2023-10-19T05:06:02;6.20;65.60
75994;DHT22;64680;53.800;9.988;2023-10-19T05:08:28;6.10;67.30
75994;DHT22;64680;53.800;9.988;2023-10-19T05:10:55;6.10;70.80
75994;DHT22;64680;53.800;9.988;2023-10-19T05:13:24;6.10;74.20
75994;DHT22;64680;53.800;9.988;2023-10-19T05:15:54;6.00;75.20
75994;DHT22;64680;53.800;9.988;2023-10-19T05:18:21;6.00;77.30
75994;DHT22;64680;53.800;9.988;2023-10-19T05:20:46;6.00;79.00
75994;DHT22;64680;53.800;9.988;2023-10-19T05:23:12;6.00;80.80
75994;DHT22;64680;53.800;9.988;2023-10-19T05:25:41;6.00;81.80
75994;DHT22;64680;53.800;9.988;2023-10-19T05:28:07;6.00;82.70
75994;DHT22;64680;53.800;9.988;2023-10-19T05:30:35;5.90;84.10
75994;DHT22;64680;53.800;9.988;2023-10-19T05:33:01;5.90;85.80
75994;DHT22;64680;53.800;9.988;2023-10-19T05:35:31;5.80;86.70
75994;DHT22;64680;53.800;9.988;2023-10-19T05:38:00;5.90;87.60
75994;DHT22;64680;53.800;9.988;2023-10-19T05:40:26;5.80;88.10
75994;DHT22;64680;53.800;9.988;2023-10-19T05:42:56;5.90;88.70
75994;DHT22;64680;53.800;9.988;2023-10-19T05:45:23;5.80;89.20
75994;DHT22;64680;53.800;9.988;2023-10-19T05:47:48;5.80;89.60
75994;DHT22;64680;53.800;9.988;2023-10-19T05:50:14;5.90;90.90
75994;DHT22;64680;53.800;9.988;2023-10-19T05:52:43;5.90;90.90
75994;DHT22;64680;53.800;9.988;2023-10-19T05:55:10;5.80;90.60
75994;DHT22;64680;53.800;9.988;2023-10-19T05:57:39;5.80;91.30
75994;DHT22;64680;53.800;9.988;2023-10-19T06:00:09;5.80;90.20
75994;DHT22;64680;53.800;9.988;2023-10-19T06:02:43;5.80;90.60
75994;DHT22;64680;53.800;9.988;2023-10-19T06:05:16;5.90;91.60
75994;DHT22;64680;53.800;9.988;2023-10-19T06:07:45;5.90;91.50
75994;DHT22;64680;53.800;9.988;2023-10-19T06:10:14;5.80;92.20
75994;DHT22;64680;53.800;9.988;2023-10-19T06:12:47;5.90;93.10
75994;DHT22;64680;53.800;9.988;2023-10-19T06:15:15;5.90;93.30
75994;DHT22;64680;53.800;9.988;2023-10-19T06:17:41;5.90;92.80
75994;DHT22;64680;53.800;9.988;2023-10-19T06:20:09;5.90;92.80
75994;DHT22;64680;53.800;9.988;2023-10-19T06:22:47;5.90;92.90
75994;DHT22;64680;53.800;9.988;2023-10-19T06:25:25;5.90;92.80
75994;DHT22;64680;53.800;9.988;2023-10-19T06:27:51;5.90;91.40
75994;DHT22;64680;53.800;9.988;2023-10-19T06:30:18;5.90;90.30
75994;DHT22;64680;53.800;9.988;2023-10-19T06:32:52;5.90;90.40
75994;DHT22;64680;53.800;9.988;2023-10-19T06:35:18;5.90;89.80
75994;DHT22;64680;53.800;9.988;2023-10-19T06:37:45;5.90;90.00
75994;DHT22;64680;53.800;9.988;2023-10-19T06:40:12;5.90;91.10
75994;DHT22;64680;53.800;9.988;2023-10-19T06:42:40;5.90;90.20
75994;DHT22;64680;53.800;9.988;2023-10-19T06:45:07;5.90;90.50
75994;DHT22;64680;53.800;9.988;2023-10-19T06:47:33;5.90;90.00
75994;DHT22;64680;53.800;9.988;2023-10-19T06:50:07;5.90;90.50
75994;DHT22;64680;53.800;9.988;2023-10-19T06:52:36;5.90;90.20
75994;DHT22;64680;53.800;9.988;2023-10-19T06:55:06;5.90;91.20
75994;DHT22;64680;53.800;9.988;2023-10-19T06:58:01;5.90;91.40
75994;DHT22;64680;53.800;9.988;2023-10-19T07:00:27;5.90;90.70
75994;DHT22;64680;53.800;9.988;2023-10-19T07:02:55;5.90;90.80
75994;DHT22;64680;53.800;9.988;2023-10-19T07:05:21;5.90;91.50
75994;DHT22;64680;53.800;9.988;2023-10-19T07:07:48;5.80;91.20
75994;DHT22;64680;53.800;9.988;2023-10-19T07:10:15;5.90;91.40
75994;DHT22;64680;53.800;9.988;2023-10-19T07:12:44;5.90;91.30
75994;DHT22;64680;53.800;9.988;2023-10-19T07:15:11;5.90;90.00
75994;DHT22;64680;53.800;9.988;2023-10-19T07:17:43;5.80;90.60
75994;DHT22;64680;53.800;9.988;2023-10-19T07:20:10;5.80;90.50
75994;DHT22;64680;53.800;9.988;2023-10-19T07:22:54;5.80;90.80
75994;DHT22;64680;53.800;9.988;2023-10-19T07:25:21;5.90;91.50
75994;DHT22;64680;53.800;9.988;2023-10-19T07:27:50;5.90;92.20
75994;DHT22;64680;53.800;9.988;2023-10-19T07:30:17;5.80;93.20
75994;DHT22;64680;53.800;9.988;2023-10-19T07:32:50;5.90;93.20
75994;DHT22;64680;53.800;9.988;2023-10-19T07:35:20;5.90;93.30
75994;DHT22;64680;53.800;9.988;2023-10-19T07:37:46;5.90;93.00
75994;DHT22;64680;53.800;9.988;2023-10-19T07:40:13;5.90;93.50
75994;DHT22;64680;53.800;9.988;2023-10-19T07:42:40;5.90;92.80
75994;DHT22;64680;53.800;9.988;2023-10-19T07:45:06;5.90;93.40
75994;DHT22;64680;53.800;9.988;2023-10-19T07:47:38;6.00;92.80
75994;DHT22;64680;53.800;9.988;2023-10-19T07:50:09;6.00;92.10
75994;DHT22;64680;53.800;9.988;2023-10-19T07:52:38;6.00;92.30
75994;DHT22;64680;53.800;9.988;2023-10-19T07:55:06;6.10;91.20
75994;DHT22;64680;53.800;9.988;2023-10-19T07:57:32;6.10;91.10
75994;DHT22;64680;53.800;9.988;2023-10-19T07:59:59;6.10;90.10
75994;DHT22;64680;53.800;9.988;2023-10-19T08:02:25;6.10;89.70
75994;DHT22;64680;53.800;9.988;2023-10-19T08:04:52;6.00;90.10
75994;DHT22;64680;53.800;9.988;2023-10-19T08:07:18;6.00;90.40
75994;DHT22;64680;53.800;9.988;2023-10-19T08:09:44;6.00;89.80
75994;DHT22;64680;53.800;9.988;2023-10-19T08:12:10;6.00;89.80
75994;DHT22;64680;53.800;9.988;2023-10-19T08:14:38;6.00;90.70
75994;DHT22;64680;53.800;9.988;2023-10-19T08:17:04;6.10;90.40
75994;DHT22;64680;53.800;9.988;2023-10-19T08:19:30;6.10;90.50
75994;DHT22;64680;53.800;9.988;2023-10-19T08:21:58;6.10;89.60
75994;DHT22;64680;53.800;9.988;2023-10-19T08:24:23;6.10;90.00
75994;DHT22;64680;53.800;9.988;2023-10-19T08:26:49;6.10;90.00
75994;DHT22;64680;53.800;9.988;2023-10-19T08:29:16;6.10;89.90
75994;DHT22;64680;53.800;9.988;2023-10-19T08:31:43;6.10;90.70
75994;DHT22;64680;53.800;9.988;2023-10-19T08:34:11;6.10;90.90
75994;DHT22;64680;53.800;9.988;2023-10-19T08:36:37;6.10;90.20
75994;DHT22;64680;53.800;9.988;2023-10-19T08:39:07;6.20;90.60
75994;DHT22;64680;53.800;9.988;2023-10-19T08:41:36;6.10;90.10
75994;DHT22;64680;53.800;9.988;2023-10-19T08:44:04;6.20;91.30
75994;DHT22;64680;53.800;9.988;2023-10-19T08:46:37;6.20;89.10
75994;DHT22;64680;53.800;9.988;2023-10-19T08:49:05;6.10;89.20
75994;DHT22;64680;53.800;9.988;2023-10-19T08:51:35;6.10;89.60
75994;DHT22;64680;53.800;9.988;2023-10-19T08:54:01;6.10;89.40
75994;DHT22;64680;53.800;9.988;2023-10-19T08:56:27;6.10;89.20
75994;DHT22;64680;53.800;9.988;2023-10-19T08:58:53;6.10;89.90
75994;DHT22;64680;53.800;9.988;2023-10-19T09:01:19;6.10;88.90
75994;DHT22;64680;53.800;9.988;2023-10-19T09:03:45;6.00;89.30
75994;DHT22;64680;53.800;9.988;2023-10-19T09:06:12;6.10;89.00
75994;DHT22;64680;53.800;9.988;2023-10-19T09:08:39;6.10;89.60
75994;DHT22;64680;53.800;9.988;2023-10-19T09:11:06;6.10;90.70
75994;DHT22;64680;53.800;9.988;2023-10-19T09:13:48;6.10;92.00
75994;DHT22;64680;53.800;9.988;2023-10-19T09:16:15;6.00;91.90
75994;DHT22;64680;53.800;9.988;2023-10-19T09:18:41;6.10;93.60
75994;DHT22;64680;53.800;9.988;2023-10-19T09:21:07;6.10;94.80
75994;DHT22;64680;53.800;9.988;2023-10-19T09:23:37;6.20;95.80
75994;DHT22;64680;53.800;9.988;2023-10-19T09:26:03;6.20;96.30
75994;DHT22;64680;53.800;9.988;2023-10-19T09:28:30;6.30;97.00
75994;DHT22;64680;53.800;9.988;2023-10-19T09:31:00;6.30;96.70
75994;DHT22;64680;53.800;9.988;2023-10-19T09:33:27;6.40;96.30
75994;DHT22;64680;53.800;9.988;2023-10-19T09:35:53;6.40;95.80
75994;DHT22;64680;53.800;9.988;2023-10-19T09:38:20;6.40;96.30
75994;DHT22;64680;53.800;9.988;2023-10-19T09:40:54;6.40;96.70
75994;DHT22;64680;53.800;9.988;2023-10-19T09:43:46;6.50;97.50
75994;DHT22;64680;53.800;9.988;2023-10-19T09:46:20;6.50;97.30
75994;DHT22;64680;53.800;9.988;2023-10-19T09:48:47;6.50;97.90
75994;DHT22;64680;53.800;9.988;2023-10-19T09:51:14;6.50;98.50
75994;DHT22;64680;53.800;9.988;2023-10-19T09:53:43;6.60;99.00
75994;DHT22;64680;53.800;9.988;2023-10-19T09:56:15;6.50;98.80
75994;DHT22;64680;53.800;9.988;2023-10-19T09:58:51;6.50;99.30
75994;DHT22;64680;53.800;9.988;2023-10-19T10:01:18;6.60;99.90
75994;DHT22;64680;53.800;9.988;2023-10-19T10:03:55;6.50;99.90
75994;DHT22;64680;53.800;9.988;2023-10-19T10:09:20;6.50;99.90
75994;DHT22;64680;53.800;9.988;2023-10-19T10:11:49;6.60;99.90
75994;DHT22;64680;53.800;9.988;2023-10-19T10:14:25;6.60;99.90
75994;DHT22;64680;53.800;9.988;2023-10-19T10:17:03;6.60;99.90
75994;DHT22;64680;53.800;9.988;2023-10-19T10:19:29;6.60;99.90
75994;DHT22;64680;53.800;9.988;2023-10-19T10:22:08;6.60;99.90
75994;DHT22;64680;53.800;9.988;2023-10-19T10:24:46;6.60;99.50
75994;DHT22;64680;53.800;9.988;2023-10-19T10:27:16;6.60;98.70
75994;DHT22;64680;53.800;9.988;2023-10-19T10:29:58;6.60;98.90
75994;DHT22;64680;53.800;9.988;2023-10-19T10:32:44;6.60;99.90
75994;DHT22;64680;53.800;9.988;2023-10-19T10:35:09;6.60;99.90
75994;DHT22;64680;53.800;9.988;2023-10-19T10:37:38;6.60;99.80
75994;DHT22;64680;53.800;9.988;2023-10-19T10:40:06;6.70;99.90
75994;DHT22;64680;53.800;9.988;2023-10-19T10:42:31;6.60;99.90
75994;DHT22;64680;53.800;9.988;2023-10-19T10:44:59;6.70;99.90
75994;DHT22;64680;53.800;9.988;2023-10-19T10:47:25;6.60;98.50
75994;DHT22;64680;53.800;9.988;2023-10-19T10:49:52;6.60;99.00
75994;DHT22;64680;53.800;9.988;2023-10-19T10:54:51;6.60;99.30
75994;DHT22;64680;53.800;9.988;2023-10-19T10:57:18;6.60;99.40
75994;DHT22;64680;53.800;9.988;2023-10-19T10:59:43;6.60;99.20
75994;DHT22;64680;53.800;9.988;2023-10-19T11:02:18;6.60;99.80
75994;DHT22;64680;53.800;9.988;2023-10-19T11:04:45;6.60;99.40
75994;DHT22;64680;53.800;9.988;2023-10-19T11:07:18;6.50;99.10
75994;DHT22;64680;53.800;9.988;2023-10-19T11:09:44;6.60;99.80
75994;DHT22;64680;53.800;9.988;2023-10-19T11:12:14;6.60;98.90
75994;DHT22;64680;53.800;9.988;2023-10-19T11:14:57;6.60;98.90
75994;DHT22;64680;53.800;9.988;2023-10-19T11:17:31;6.50;98.70
75994;DHT22;64680;53.800;9.988;2023-10-19T11:19:57;6.50;99.60
75994;DHT22;64680;53.800;9.988;2023-10-19T11:22:24;6.60;99.90
75994;DHT22;64680;53.800;9.988;2023-10-19T11:24:51;6.60;99.90
75994;DHT22;64680;53.800;9.988;2023-10-19T11:27:27;6.60;99.90
75994;DHT22;64680;53.800;9.988;2023-10-19T11:30:00;6.60;99.90
75994;DHT22;64680;53.800;9.988;2023-10-19T11:32:39;6.60;99.90
75994;DHT22;64680;53.800;9.988;2023-10-19T11:35:04;6.60;99.90
75994;DHT22;64680;53.800;9.988;2023-10-19T11:37:46;6.60;99.90
75994;DHT22;64680;53.800;9.988;2023-10-19T11:40:11;6.50;99.90
75994;DHT22;64680;53.800;9.988;2023-10-19T11:42:37;6.50;99.90
75994;DHT22;64680;53.800;9.988;2023-10-19T11:45:03;6.50;99.90
75994;DHT22;64680;53.800;9.988;2023-10-19T11:47:31;6.50;99.90
75994;DHT22;64680;53.800;9.988;2023-10-19T11:49:57;6.50;99.90
75994;DHT22;64680;53.800;9.988;2023-10-19T11:52:22;6.60;99.90
75994;DHT22;64680;53.800;9.988;2023-10-19T11:54:48;6.50;99.90
75994;DHT22;64680;53.800;9.988;2023-10-19T11:57:13;6.60;99.90
75994;DHT22;64680;53.800;9.988;2023-10-19T11:59:39;6.60;99.90
75994;DHT22;64680;53.800;9.988;2023-10-19T12:02:06;6.60;99.90
75994;DHT22;64680;53.800;9.988;2023-10-19T12:04:32;6.60;99.90
75994;DHT22;64680;53.800;9.988;2023-10-19T12:07:01;6.60;99.90
75994;DHT22;64680;53.800;9.988;2023-10-19T12:09:28;6.60;99.90
75994;DHT22;64680;53.800;9.988;2023-10-19T12:11:55;6.60;99.90
75994;DHT22;64680;53.800;9.988;2023-10-19T12:14:21;6.70;99.90
75994;DHT22;64680;53.800;9.988;2023-10-19T12:16:48;6.70;99.90
75994;DHT22;64680;53.800;9.988;2023-10-19T12:19:14;6.70;99.90
75994;DHT22;64680;53.800;9.988;2023-10-19T12:21:40;6.60;99.90
75994;DHT22;64680;53.800;9.988;2023-10-19T12:24:10;6.60;99.90
75994;DHT22;64680;53.800;9.988;2023-10-19T12:26:35;6.60;99.90
75994;DHT22;64680;53.800;9.988;2023-10-19T12:29:01;6.60;99.90
75994;DHT22;64680;53.800;9.988;2023-10-19T12:31:29;6.60;99.90
75994;DHT22;64680;53.800;9.988;2023-10-19T12:33:55;6.60;99.90
75994;DHT22;64680;53.800;9.988;2023-10-19T12:36:21;6.70;99.90
75994;DHT22;64680;53.800;9.988;2023-10-19T12:38:47;6.70;99.90
75994;DHT22;64680;53.800;9.988;2023-10-19T12:41:13;6.70;99.90
75994;DHT22;64680;53.800;9.988;2023-10-19T12:43:39;6.70;99.90
75994;DHT22;64680;53.800;9.988;2023-10-19T12:46:05;6.70;99.90
75994;DHT22;64680;53.800;9.988;2023-10-19T12:48:34;6.60;99.90
75994;DHT22;64680;53.800;9.988;2023-10-19T12:51:01;6.70;99.90
75994;DHT22;64680;53.800;9.988;2023-10-19T12:53:27;6.70;99.90
75994;DHT22;64680;53.800;9.988;2023-10-19T12:55:53;6.70;99.90
75994;DHT22;64680;53.800;9.988;2023-10-19T12:58:18;6.70;99.90
75994;DHT22;64680;53.800;9.988;2023-10-19T13:00:47;6.70;99.90
75994;DHT22;64680;53.800;9.988;2023-10-19T13:03:14;6.70;99.90
75994;DHT22;64680;53.800;9.988;2023-10-19T13:05:42;6.70;99.90
75994;DHT22;64680;53.800;9.988;2023-10-19T13:08:10;6.70;99.90
75994;DHT22;64680;53.800;9.988;2023-10-19T13:10:38;6.70;99.90
75994;DHT22;64680;53.800;9.988;2023-10-19T13:13:08;6.70;99.90
75994;DHT22;64680;53.800;9.988;2023-10-19T13:15:37;6.70;99.90
75994;DHT22;64680;53.800;9.988;2023-10-19T13:18:05;6.70;99.90
75994;DHT22;64680;53.800;9.988;2023-10-19T13:20:32;6.70;99.90
75994;DHT22;64680;53.800;9.988;2023-10-19T13:23:02;6.80;99.90
75994;DHT22;64680;53.800;9.988;2023-10-19T13:25:34;6.80;99.90
75994;DHT22;64680;53.800;9.988;2023-10-19T13:28:16;6.80;99.90
75994;DHT22;64680;53.800;9.988;2023-10-19T13:30:45;6.80;99.90
75994;DHT22;64680;53.800;9.988;2023-10-19T13:33:13;6.70;99.90
75994;DHT22;64680;53.800;9.988;2023-10-19T13:35:41;6.80;99.90
75994;DHT22;64680;53.800;9.988;2023-10-19T13:38:08;6.80;99.90
75994;DHT22;64680;53.800;9.988;2023-10-19T13:40:35;6.80;99.90
75994;DHT22;64680;53.800;9.988;2023-10-19T13:43:02;6.80;99.90
75994;DHT22;64680;53.800;9.988;2023-10-19T13:45:32;6.80;99.20
75994;DHT22;64680;53.800;9.988;2023-10-19T13:48:00;6.80;99.10
75994;DHT22;64680;53.800;9.988;2023-10-19T13:50:25;6.80;99.90
75994;DHT22;64680;53.800;9.988;2023-10-19T13:52:56;6.80;99.90
75994;DHT22;64680;53.800;9.988;2023-10-19T13:55:26;6.80;99.30
75994;DHT22;64680;53.800;9.988;2023-10-19T13:57:52;6.80;98.80
75994;DHT22;64680;53.800;9.988;2023-10-19T14:00:19;6.80;98.80
75994;DHT22;64680;53.800;9.988;2023-10-19T14:03:09;6.80;99.10
75994;DHT22;64680;53.800;9.988;2023-10-19T14:05:40;6.90;99.60
75994;DHT22;64680;53.800;9.988;2023-10-19T14:08:08;6.80;98.50
75994;DHT22;64680;53.800;9.988;2023-10-19T14:10:35;6.90;98.90
75994;DHT22;64680;53.800;9.988;2023-10-19T14:13:00;6.80;98.60
75994;DHT22;64680;53.800;9.988;2023-10-19T14:15:26;6.90;99.10
75994;DHT22;64680;53.800;9.988;2023-10-19T14:17:55;6.80;98.60
75994;DHT22;64680;53.800;9.988;2023-10-19T14:20:21;6.80;99.20
75994;DHT22;64680;53.800;9.988;2023-10-19T14:22:53;6.90;99.60
75994;DHT22;64680;53.800;9.988;2023-10-19T14:25:19;6.90;99.90
75994;DHT22;64680;53.800;9.988;2023-10-19T14:27:48;6.90;99.90
75994;DHT22;64680;53.800;9.988;2023-10-19T14:30:14;6.90;99.90
75994;DHT22;64680;53.800;9.988;2023-10-19T14:32:41;6.90;99.90
75994;DHT22;64680;53.800;9.988;2023-10-19T14:35:10;6.90;99.90
75994;DHT22;64680;53.800;9.988;2023-10-19T14:37:44;6.90;99.90
75994;DHT22;64680;53.800;9.988;2023-10-19T14:40:15;7.00;99.90
75994;DHT22;64680;53.800;9.988;2023-10-19T14:42:42;7.00;99.80
75994;DHT22;64680;53.800;9.988;2023-10-19T14:45:27;6.90;99.90
75994;DHT22;64680;53.800;9.988;2023-10-19T14:47:56;6.90;99.90
75994;DHT22;64680;53.800;9.988;2023-10-19T14:50:29;6.90;99.40
75994;DHT22;64680;53.800;9.988;2023-10-19T14:52:54;6.90;99.80
75994;DHT22;64680;53.800;9.988;2023-10-19T14:55:20;6.90;99.90
75994;DHT22;64680;53.800;9.988;2023-10-19T14:57:48;6.90;99.90
75994;DHT22;64680;53.800;9.988;2023-10-19T15:00:15;6.90;99.90
75994;DHT22;64680;53.800;9.988;2023-10-19T15:02:44;6.90;99.90
75994;DHT22;64680;53.800;9.988;2023-10-19T15:05:11;6.90;99.90
75994;DHT22;64680;53.800;9.988;2023-10-19T15:07:48;6.90;99.90
75994;DHT22;64680;53.800;9.988;2023-10-19T15:10:25;6.90;99.90
75994;DHT22;64680;53.800;9.988;2023-10-19T15:12:51;6.90;99.90
75994;DHT22;64680;53.800;9.988;2023-10-19T15:15:17;6.90;99.90
75994;DHT22;64680;53.800;9.988;2023-10-19T15:17:44;6.90;99.90
75994;DHT22;64680;53.800;9.988;2023-10-19T15:20:11;6.90;99.90
75994;DHT22;64680;53.800;9.988;2023-10-19T15:22:44;6.90;99.90
75994;DHT22;64680;53.800;9.988;2023-10-19T15:25:13;6.90;99.90
75994;DHT22;64680;53.800;9.988;2023-10-19T15:27:42;6.90;99.90
75994;DHT22;64680;53.800;9.988;2023-10-19T15:30:10;6.90;99.90
75994;DHT22;64680;53.800;9.988;2023-10-19T15:32:37;6.90;99.90
75994;DHT22;64680;53.800;9.988;2023-10-19T15:35:03;6.90;99.90
75994;DHT22;64680;53.800;9.988;2023-10-19T15:37:29;6.90;99.90
75994;DHT22;64680;53.800;9.988;2023-10-19T15:39:55;6.90;99.90
75994;DHT22;64680;53.800;9.988;2023-10-19T15:42:20;6.90;99.90
75994;DHT22;64680;53.800;9.988;2023-10-19T15:44:50;6.80;99.90
75994;DHT22;64680;53.800;9.988;2023-10-19T15:47:17;6.80;99.90
75994;DHT22;64680;53.800;9.988;2023-10-19T15:49:53;6.80;99.90
75994;DHT22;64680;53.800;9.988;2023-10-19T15:52:23;6.80;99.90
75994;DHT22;64680;53.800;9.988;2023-10-19T15:54:50;6.80;99.90
75994;DHT22;64680;53.800;9.988;2023-10-19T15:57:16;6.80;99.90
75994;DHT22;64680;53.800;9.988;2023-10-19T15:59:42;6.80;99.90
75994;DHT22;64680;53.800;9.988;2023-10-19T16:02:12;6.80;99.90
75994;DHT22;64680;53.800;9.988;2023-10-19T16:04:39;6.80;99.90
75994;DHT22;64680;53.800;9.988;2023-10-19T16:07:06;6.80;99.90